createdAt,value
2024-05-09T00:00:31.563Z,14.28
2024-05-09T00:01:27.973Z,14.29
2024-05-09T00:02:27.912Z,14.27
2024-05-09T00:03:27.993Z,14.24
2024-05-09T00:04:27.988Z,14.26
2024-05-09T00:05:26.978Z,14.26
2024-05-09T00:06:29.794Z,14.25
2024-05-09T00:07:26.952Z,14.24
2024-05-09T00:08:27.961Z,14.23
2024-05-09T00:09:27.919Z,14.23
2024-05-09T00:10:35.213Z,14.21
2024-05-09T00:11:27.983Z,14.2
2024-05-09T00:12:26.957Z,14.2
2024-05-09T00:13:27.916Z,14.18
2024-05-09T00:14:27.999Z,14.2
2024-05-09T00:15:26.917Z,14.17
2024-05-09T00:16:27.901Z,14.16
2024-05-09T00:17:27.110Z,14.15
2024-05-09T00:18:28.088Z,14.12
2024-05-09T00:19:28.084Z,14.13
2024-05-09T00:20:35.125Z,14.14
2024-05-09T00:21:27.923Z,14.09
2024-05-09T00:22:26.989Z,14.08
2024-05-09T00:23:27.987Z,14.03
2024-05-09T00:24:26.948Z,14.05
2024-05-09T00:25:27.011Z,14.05
2024-05-09T00:26:28.053Z,14.06
2024-05-09T00:27:26.952Z,14.05
2024-05-09T00:28:27.957Z,14.03
2024-05-09T00:29:27.072Z,14.05
2024-05-09T00:30:33.599Z,14.02
2024-05-09T00:31:27.956Z,14.02
2024-05-09T00:32:27.030Z,14.02
2024-05-09T00:33:28.321Z,13.99
2024-05-09T00:34:27.089Z,14.01
2024-05-09T00:35:30.034Z,13.98
2024-05-09T00:36:26.971Z,13.97
2024-05-09T00:37:27.027Z,13.98
2024-05-09T00:38:27.994Z,13.96
2024-05-09T00:39:26.984Z,13.97
2024-05-09T00:40:35.717Z,13.93
2024-05-09T00:41:28.018Z,13.9
2024-05-09T00:42:26.981Z,13.88
2024-05-09T00:43:27.991Z,13.85
2024-05-09T00:44:27.005Z,13.84
2024-05-09T00:45:28.012Z,13.8
2024-05-09T00:46:27.033Z,13.76
2024-05-09T00:47:27.227Z,13.73
2024-05-09T00:48:28.150Z,13.73
2024-05-09T00:49:27.193Z,13.74
2024-05-09T00:50:35.571Z,13.7
2024-05-09T00:51:27.028Z,13.69
2024-05-09T00:52:29.616Z,13.7
2024-05-09T00:53:28.107Z,13.67
2024-05-09T00:54:27.005Z,13.69
2024-05-09T00:55:28.055Z,13.66
2024-05-09T00:56:27.131Z,13.65
2024-05-09T00:57:28.019Z,13.64
2024-05-09T00:58:28.014Z,13.62
2024-05-09T00:59:27.082Z,13.63
2024-05-09T01:00:35.925Z,13.59
2024-05-09T01:01:28.058Z,13.56
2024-05-09T01:02:28.086Z,13.55
2024-05-09T01:03:28.310Z,13.58
2024-05-09T01:04:29.952Z,13.61
2024-05-09T01:05:27.054Z,13.59
2024-05-09T01:06:27.034Z,13.58
2024-05-09T01:07:28.076Z,13.57
2024-05-09T01:08:28.086Z,13.58
2024-05-09T01:09:28.048Z,13.6
2024-05-09T01:10:33.688Z,13.57
2024-05-09T01:11:27.103Z,13.56
2024-05-09T01:12:28.202Z,13.53
2024-05-09T01:13:28.050Z,13.51
2024-05-09T01:14:28.132Z,13.51
2024-05-09T01:15:27.070Z,13.48
2024-05-09T01:16:27.057Z,13.44
2024-05-09T01:17:28.262Z,13.44
2024-05-09T01:18:28.072Z,13.47
2024-05-09T01:19:28.306Z,13.49
2024-05-09T01:20:36.978Z,13.48
2024-05-09T01:21:28.068Z,13.5
2024-05-09T01:22:27.115Z,13.48
2024-05-09T01:23:28.148Z,13.46
2024-05-09T01:24:28.122Z,13.48
2024-05-09T01:25:27.079Z,13.49
2024-05-09T01:26:28.177Z,13.5
2024-05-09T01:27:27.082Z,13.48
2024-05-09T01:28:28.082Z,13.48
2024-05-09T01:29:28.333Z,13.48
2024-05-09T01:30:33.033Z,13.48
2024-05-09T01:31:28.075Z,13.45
2024-05-09T01:32:27.383Z,13.44
2024-05-09T01:33:30.219Z,13.42
2024-05-09T01:34:27.100Z,13.44
2024-05-09T01:35:27.176Z,13.42
2024-05-09T01:36:28.107Z,13.4
2024-05-09T01:37:27.129Z,13.39
2024-05-09T01:38:28.260Z,13.37
2024-05-09T01:39:27.107Z,13.39
2024-05-09T01:40:36.331Z,13.36
2024-05-09T01:41:28.245Z,13.31
2024-05-09T01:42:27.114Z,13.3
2024-05-09T01:43:28.119Z,13.24
2024-05-09T01:44:27.199Z,13.24
2024-05-09T01:45:27.122Z,13.22
2024-05-09T01:46:28.113Z,13.2
2024-05-09T01:47:27.332Z,13.19
2024-05-09T01:48:28.189Z,13.17
2024-05-09T01:49:27.216Z,13.18
2024-05-09T01:50:37.695Z,13.17
2024-05-09T01:51:28.128Z,13.14
2024-05-09T01:52:27.144Z,13.13
2024-05-09T01:53:28.226Z,13.13
2024-05-09T01:54:27.145Z,13.14
2024-05-09T01:55:28.137Z,13.15
2024-05-09T01:56:27.272Z,13.12
2024-05-09T01:57:27.153Z,13.12
2024-05-09T01:58:28.142Z,13.12
2024-05-09T01:59:27.394Z,13.11
2024-05-09T02:00:37.101Z,13.09
2024-05-09T02:01:28.328Z,13.09
2024-05-09T02:02:30.090Z,13.03
2024-05-09T02:03:28.415Z,13.02
2024-05-09T02:04:27.302Z,13.01
2024-05-09T02:05:28.312Z,12.96
2024-05-09T02:06:27.170Z,12.94
2024-05-09T02:07:28.157Z,12.95
2024-05-09T02:08:28.197Z,12.93
2024-05-09T02:09:27.174Z,12.93
2024-05-09T02:10:32.502Z,12.93
2024-05-09T02:11:27.257Z,12.94
2024-05-09T02:12:28.238Z,12.94
2024-05-09T02:13:28.166Z,12.94
2024-05-09T02:14:27.414Z,12.96
2024-05-09T02:15:28.192Z,12.94
2024-05-09T02:16:27.198Z,12.9
2024-05-09T02:17:28.388Z,12.85
2024-05-09T02:18:28.372Z,12.87
2024-05-09T02:19:28.320Z,12.87
2024-05-09T02:20:33.439Z,12.84
2024-05-09T02:21:27.196Z,12.83
2024-05-09T02:22:28.248Z,12.82
2024-05-09T02:23:28.262Z,12.79
2024-05-09T02:24:28.221Z,12.84
2024-05-09T02:25:27.208Z,12.81
2024-05-09T02:26:27.318Z,12.8
2024-05-09T02:27:28.225Z,12.8
2024-05-09T02:28:28.206Z,12.74
2024-05-09T02:29:28.320Z,12.76
2024-05-09T02:30:36.266Z,12.73
2024-05-09T02:31:30.143Z,12.7
2024-05-09T02:32:27.441Z,12.69
2024-05-09T02:33:28.493Z,12.68
2024-05-09T02:34:28.245Z,12.73
2024-05-09T02:35:27.343Z,12.71
2024-05-09T02:36:28.230Z,12.68
2024-05-09T02:37:27.278Z,12.64
2024-05-09T02:38:28.272Z,12.65
2024-05-09T02:39:28.236Z,12.67
2024-05-09T02:40:35.667Z,12.64
2024-05-09T02:41:28.333Z,12.63
2024-05-09T02:42:27.245Z,12.63
2024-05-09T02:43:28.238Z,12.64
2024-05-09T02:44:28.300Z,12.66
2024-05-09T02:45:27.256Z,12.69
2024-05-09T02:46:28.272Z,12.68
2024-05-09T02:47:27.388Z,12.63
2024-05-09T02:48:31.731Z,12.59
2024-05-09T02:49:27.308Z,12.62
2024-05-09T02:50:34.462Z,12.6
2024-05-09T02:51:28.442Z,12.58
2024-05-09T02:52:27.273Z,12.58
2024-05-09T02:53:28.404Z,12.57
2024-05-09T02:54:27.273Z,12.6
2024-05-09T02:55:27.323Z,12.59
2024-05-09T02:56:28.395Z,12.54
2024-05-09T02:57:27.282Z,12.53
2024-05-09T02:58:28.281Z,12.53
2024-05-09T02:59:27.428Z,12.56
2024-05-09T03:00:39.020Z,12.57
2024-05-09T03:01:27.309Z,12.58
2024-05-09T03:02:27.415Z,12.59
2024-05-09T03:03:29.486Z,12.6
2024-05-09T03:04:27.350Z,12.6
2024-05-09T03:05:28.361Z,12.56
2024-05-09T03:06:27.300Z,12.51
2024-05-09T03:07:27.343Z,12.49
2024-05-09T03:08:28.964Z,12.47
2024-05-09T03:09:27.304Z,12.5
2024-05-09T03:10:29.082Z,12.52
2024-05-09T03:11:27.416Z,12.52
2024-05-09T03:12:27.375Z,12.51
2024-05-09T03:13:29.005Z,12.48
2024-05-09T03:14:27.530Z,12.52
2024-05-09T03:15:28.295Z,12.48
2024-05-09T03:16:27.362Z,12.51
2024-05-09T03:17:28.399Z,12.46
2024-05-09T03:18:29.839Z,12.46
2024-05-09T03:19:27.444Z,12.49
2024-05-09T03:20:33.606Z,12.48
2024-05-09T03:21:27.331Z,12.51
2024-05-09T03:22:28.326Z,12.48
2024-05-09T03:23:29.778Z,12.46
2024-05-09T03:24:27.348Z,12.45
2024-05-09T03:25:28.330Z,12.39
2024-05-09T03:26:27.462Z,12.37
2024-05-09T03:27:28.347Z,12.38
2024-05-09T03:28:29.793Z,12.35
2024-05-09T03:29:30.346Z,12.37
2024-05-09T03:30:35.987Z,12.34
2024-05-09T03:31:28.350Z,12.31
2024-05-09T03:32:28.435Z,12.33
2024-05-09T03:33:30.937Z,12.3
2024-05-09T03:34:28.416Z,12.31
2024-05-09T03:35:27.404Z,12.31
2024-05-09T03:36:27.363Z,12.27
2024-05-09T03:37:28.364Z,12.26
2024-05-09T03:38:30.523Z,12.27
2024-05-09T03:39:28.387Z,12.29
2024-05-09T03:40:30.819Z,12.29
2024-05-09T03:41:27.405Z,12.3
2024-05-09T03:42:28.401Z,12.33
2024-05-09T03:43:30.644Z,12.33
2024-05-09T03:44:28.468Z,12.36
2024-05-09T03:45:27.419Z,12.36
2024-05-09T03:46:28.389Z,12.36
2024-05-09T03:47:27.569Z,12.34
2024-05-09T03:48:27.546Z,12.32
2024-05-09T03:49:28.451Z,12.36
2024-05-09T03:50:33.697Z,12.33
2024-05-09T03:51:28.383Z,12.34
2024-05-09T03:52:27.404Z,12.35
2024-05-09T03:53:27.465Z,12.34
2024-05-09T03:54:28.422Z,12.36
2024-05-09T03:55:27.460Z,12.36
2024-05-09T03:56:28.425Z,12.34
2024-05-09T03:57:27.413Z,12.32
2024-05-09T03:58:36.492Z,12.34
2024-05-09T03:59:27.624Z,12.36
2024-05-09T04:00:35.204Z,12.34
2024-05-09T04:01:28.477Z,12.36
2024-05-09T04:02:27.478Z,12.33
2024-05-09T04:03:28.669Z,12.34
2024-05-09T04:04:28.489Z,12.36
2024-05-09T04:05:27.487Z,12.34
2024-05-09T04:06:28.446Z,12.34
2024-05-09T04:07:27.480Z,12.33
2024-05-09T04:08:28.499Z,12.33
2024-05-09T04:09:28.425Z,12.35
2024-05-09T04:10:32.810Z,12.34
2024-05-09T04:11:28.530Z,12.36
2024-05-09T04:12:27.530Z,12.36
2024-05-09T04:13:28.470Z,12.35
2024-05-09T04:14:28.571Z,12.39
2024-05-09T04:15:28.442Z,12.38
2024-05-09T04:16:27.497Z,12.38
2024-05-09T04:17:27.622Z,12.37
2024-05-09T04:18:28.612Z,12.41
2024-05-09T04:19:28.626Z,12.42
2024-05-09T04:20:36.318Z,12.39
2024-05-09T04:21:28.448Z,12.41
2024-05-09T04:22:27.511Z,12.4
2024-05-09T04:23:28.646Z,12.39
2024-05-09T04:24:28.454Z,12.43
2024-05-09T04:25:28.455Z,12.43
2024-05-09T04:26:27.565Z,12.44
2024-05-09T04:27:30.374Z,12.41
2024-05-09T04:28:27.522Z,12.41
2024-05-09T04:29:28.649Z,12.46
2024-05-09T04:30:36.654Z,12.47
2024-05-09T04:31:28.486Z,12.46
2024-05-09T04:32:28.650Z,12.47
2024-05-09T04:33:27.688Z,12.5
2024-05-09T04:34:28.637Z,12.54
2024-05-09T04:35:28.582Z,12.56
2024-05-09T04:36:27.501Z,12.59
2024-05-09T04:37:28.484Z,12.62
2024-05-09T04:38:27.589Z,12.61
2024-05-09T04:39:28.525Z,12.65
2024-05-09T04:40:33.723Z,12.66
2024-05-09T04:41:27.566Z,12.68
2024-05-09T04:42:28.504Z,12.68
2024-05-09T04:43:27.568Z,12.67
2024-05-09T04:44:28.620Z,12.69
2024-05-09T04:45:27.526Z,12.68
2024-05-09T04:46:27.574Z,12.72
2024-05-09T04:47:28.682Z,12.75
2024-05-09T04:48:27.704Z,12.81
2024-05-09T04:49:28.624Z,12.83
2024-05-09T04:50:36.036Z,12.86
2024-05-09T04:51:28.520Z,12.91
2024-05-09T04:52:28.552Z,12.93
2024-05-09T04:53:27.574Z,12.98
2024-05-09T04:54:35.800Z,12.98
2024-05-09T04:55:27.544Z,13.02
2024-05-09T04:56:30.479Z,13.05
2024-05-09T04:57:27.549Z,13.07
2024-05-09T04:58:27.588Z,13.06
2024-05-09T04:59:28.615Z,13.09
2024-05-09T05:00:35.320Z,13.13
2024-05-09T05:01:28.649Z,13.14
2024-05-09T05:02:27.703Z,13.04
2024-05-09T05:03:27.854Z,13.06
2024-05-09T05:04:28.606Z,13.08
2024-05-09T05:05:27.573Z,13.11
2024-05-09T05:06:28.604Z,13.15
2024-05-09T05:07:27.613Z,13.19
2024-05-09T05:08:27.639Z,13.2
2024-05-09T05:09:28.576Z,13.21
2024-05-09T05:10:33.828Z,13.23
2024-05-09T05:11:28.735Z,13.26
2024-05-09T05:12:27.653Z,13.28
2024-05-09T05:13:30.135Z,13.32
2024-05-09T05:14:28.671Z,13.33
2024-05-09T05:15:27.587Z,13.34
2024-05-09T05:16:28.604Z,13.33
2024-05-09T05:17:27.808Z,13.37
2024-05-09T05:18:28.806Z,13.39
2024-05-09T05:19:28.822Z,13.31
2024-05-09T05:20:33.093Z,13.32
2024-05-09T05:21:28.626Z,13.27
2024-05-09T05:22:27.616Z,13.18
2024-05-09T05:23:28.636Z,13.22
2024-05-09T05:24:28.591Z,13.25
2024-05-09T05:25:30.534Z,13.27
2024-05-09T05:26:27.705Z,13.3
2024-05-09T05:27:27.609Z,13.23
2024-05-09T05:28:28.605Z,13.29
2024-05-09T05:29:28.705Z,13.33
2024-05-09T05:30:32.962Z,13.37
2024-05-09T05:31:27.673Z,13.39
2024-05-09T05:32:27.742Z,13.3
2024-05-09T05:33:28.803Z,13.33
2024-05-09T05:34:28.624Z,13.28
2024-05-09T05:35:28.715Z,13.27
2024-05-09T05:36:27.629Z,13.31
2024-05-09T05:37:27.694Z,13.33
2024-05-09T05:38:28.896Z,13.43
2024-05-09T05:39:28.638Z,13.44
2024-05-09T05:40:35.885Z,13.5
2024-05-09T05:41:27.687Z,13.46
2024-05-09T05:42:29.514Z,13.44
2024-05-09T05:43:27.644Z,13.42
2024-05-09T05:44:28.722Z,13.4
2024-05-09T05:45:28.635Z,13.45
2024-05-09T05:46:27.647Z,13.2
2024-05-09T05:47:28.808Z,13.31
2024-05-09T05:48:27.843Z,12.98
2024-05-09T05:49:28.721Z,13.14
2024-05-09T05:50:35.448Z,13.17
2024-05-09T05:51:27.671Z,13.19
2024-05-09T05:52:28.705Z,12.88
2024-05-09T05:53:27.746Z,12.94
2024-05-09T05:54:30.625Z,13.12
2024-05-09T05:55:27.719Z,13.25
2024-05-09T05:56:27.828Z,13.34
2024-05-09T05:57:28.720Z,13.43
2024-05-09T05:58:27.726Z,13.46
2024-05-09T05:59:28.718Z,13.44
2024-05-09T06:00:34.455Z,13.49
2024-05-09T06:01:28.684Z,13.41
2024-05-09T06:02:28.837Z,13.37
2024-05-09T06:03:27.754Z,13.44
2024-05-09T06:04:28.714Z,13.4
2024-05-09T06:05:27.875Z,13.46
2024-05-09T06:06:27.700Z,13.3
2024-05-09T06:07:28.735Z,13.41
2024-05-09T06:08:30.289Z,13.51
2024-05-09T06:09:28.688Z,13.58
2024-05-09T06:10:35.099Z,13.65
2024-05-09T06:11:28.856Z,13.48
2024-05-09T06:12:27.825Z,13.62
2024-05-09T06:13:27.712Z,13.67
2024-05-09T06:14:28.828Z,13.69
2024-05-09T06:15:27.711Z,13.62
2024-05-09T06:16:28.757Z,13.67
2024-05-09T06:17:27.794Z,13.74
2024-05-09T06:18:27.929Z,13.8
2024-05-09T06:19:28.892Z,13.88
2024-05-09T06:20:35.431Z,13.88
2024-05-09T06:21:28.866Z,13.99
2024-05-09T06:22:27.755Z,13.93
2024-05-09T06:23:30.718Z,13.99
2024-05-09T06:24:28.729Z,14.03
2024-05-09T06:25:27.787Z,14.05
2024-05-09T06:26:28.857Z,14.12
2024-05-09T06:27:27.767Z,14.19
2024-05-09T06:28:28.764Z,14.2
2024-05-09T06:29:28.917Z,14.24
2024-05-09T06:30:35.213Z,14.33
2024-05-09T06:31:28.827Z,14.38
2024-05-09T06:32:27.961Z,14.46
2024-05-09T06:33:29.028Z,14.5
2024-05-09T06:34:28.827Z,14.49
2024-05-09T06:35:27.877Z,14.4
2024-05-09T06:36:28.791Z,14.41
2024-05-09T06:37:27.806Z,14.39
2024-05-09T06:38:28.778Z,14.46
2024-05-09T06:39:28.770Z,14.48
2024-05-09T06:40:36.617Z,14.57
2024-05-09T06:41:28.929Z,14.61
2024-05-09T06:42:27.780Z,14.68
2024-05-09T06:43:28.765Z,14.68
2024-05-09T06:44:28.843Z,14.62
2024-05-09T06:45:28.766Z,14.74
2024-05-09T06:46:27.819Z,14.83
2024-05-09T06:47:27.981Z,14.82
2024-05-09T06:48:28.945Z,14.91
2024-05-09T06:49:28.920Z,14.92
2024-05-09T06:50:35.716Z,15.01
2024-05-09T06:51:27.794Z,15.03
2024-05-09T06:52:34.660Z,15.1
2024-05-09T06:53:27.950Z,15.12
2024-05-09T06:54:28.802Z,15.09
2024-05-09T06:55:28.819Z,15.16
2024-05-09T06:56:27.861Z,15.18
2024-05-09T06:57:28.804Z,15.19
2024-05-09T06:58:27.815Z,15.27
2024-05-09T06:59:29.134Z,15.26
2024-05-09T07:00:35.617Z,15.34
2024-05-09T07:01:28.916Z,15.33
2024-05-09T07:02:28.958Z,15.38
2024-05-09T07:03:27.966Z,15.38
2024-05-09T07:04:28.996Z,15.32
2024-05-09T07:05:28.908Z,15.4
2024-05-09T07:06:27.847Z,15.47
2024-05-09T07:07:28.825Z,15.47
2024-05-09T07:08:27.865Z,15.47
2024-05-09T07:09:28.877Z,15.47
2024-05-09T07:10:34.087Z,15.56
2024-05-09T07:11:27.925Z,15.64
2024-05-09T07:12:28.976Z,15.72
2024-05-09T07:13:27.873Z,15.78
2024-05-09T07:14:29.139Z,15.72
2024-05-09T07:15:27.869Z,15.79
2024-05-09T07:16:27.876Z,15.85
2024-05-09T07:17:29.115Z,15.89
2024-05-09T07:18:28.074Z,15.96
2024-05-09T07:19:29.003Z,15.93
2024-05-09T07:20:34.146Z,16.01
2024-05-09T07:21:30.760Z,16.07
2024-05-09T07:22:27.879Z,16.13
2024-05-09T07:23:27.939Z,16.09
2024-05-09T07:24:28.854Z,16.08
2024-05-09T07:25:27.909Z,16.17
2024-05-09T07:26:28.908Z,16.25
2024-05-09T07:27:27.893Z,16.31
2024-05-09T07:28:27.940Z,16.33
2024-05-09T07:29:28.988Z,16.26
2024-05-09T07:30:33.281Z,16.35
2024-05-09T07:31:28.874Z,16.44
2024-05-09T07:32:28.060Z,16.51
2024-05-09T07:33:28.015Z,16.58
2024-05-09T07:34:28.993Z,16.53
2024-05-09T07:35:28.026Z,16.59
2024-05-09T07:36:28.894Z,16.67
2024-05-09T07:37:27.895Z,16.71
2024-05-09T07:38:28.938Z,16.78
2024-05-09T07:39:28.994Z,16.76
2024-05-09T07:40:34.608Z,16.8
2024-05-09T07:41:28.953Z,16.88
2024-05-09T07:42:27.911Z,16.89
2024-05-09T07:43:28.912Z,16.93
2024-05-09T07:44:29.002Z,16.86
2024-05-09T07:45:44.980Z,16.88
2024-05-09T07:47:36.825Z,16.95
2024-05-09T07:48:57.164Z,17
2024-05-09T07:50:01.104Z,17.06
2024-05-09T07:53:32.520Z,17.07
2024-05-09T07:53:39.987Z,17.13
2024-05-09T07:54:29.045Z,17.11
2024-05-09T07:55:29.258Z,17.19
2024-05-09T07:56:28.283Z,17.25
2024-05-09T07:57:27.976Z,17.3
2024-05-09T07:58:28.963Z,17.34
2024-05-09T07:59:28.962Z,17.32
2024-05-09T08:00:31.632Z,17.39
2024-05-09T08:01:28.083Z,17.43
2024-05-09T08:02:28.099Z,17.49
2024-05-09T08:03:29.156Z,17.52
2024-05-09T08:04:29.054Z,17.43
2024-05-09T08:05:29.181Z,17.48
2024-05-09T08:06:28.058Z,17.57
2024-05-09T08:07:28.958Z,17.57
2024-05-09T08:08:28.017Z,17.66
2024-05-09T08:09:29.096Z,17.65
2024-05-09T08:10:29.427Z,17.73
2024-05-09T08:11:28.021Z,17.81
2024-05-09T08:12:29.023Z,17.87
2024-05-09T08:13:28.001Z,17.91
2024-05-09T08:14:28.971Z,17.88
2024-05-09T08:15:29.189Z,17.96
2024-05-09T08:16:28.038Z,18.04
2024-05-09T08:17:29.091Z,18.11
2024-05-09T08:18:28.268Z,18.13
2024-05-09T08:19:31.073Z,18.09
2024-05-09T08:20:31.325Z,18.16
2024-05-09T08:21:28.034Z,18.21
2024-05-09T08:22:29.030Z,18.28
2024-05-09T08:23:28.050Z,18.32
2024-05-09T08:24:29.064Z,18.29
2024-05-09T08:25:28.062Z,18.31
2024-05-09T08:26:28.011Z,18.32
2024-05-09T08:27:29.127Z,18.4
2024-05-09T08:28:28.121Z,18.42
2024-05-09T08:29:29.011Z,18.41
2024-05-09T08:30:33.757Z,18.47
2024-05-09T08:31:28.171Z,18.53
2024-05-09T08:32:29.154Z,18.57
2024-05-09T08:33:28.181Z,18.64
2024-05-09T08:34:29.119Z,18.62
2024-05-09T08:35:28.024Z,18.66
2024-05-09T08:36:29.062Z,18.67
2024-05-09T08:37:32.785Z,18.67
2024-05-09T08:38:28.034Z,18.67
2024-05-09T08:39:29.035Z,18.68
2024-05-09T08:40:34.202Z,18.74
2024-05-09T08:41:29.053Z,18.77
2024-05-09T08:42:28.094Z,18.83
2024-05-09T08:43:28.072Z,18.89
2024-05-09T08:44:29.064Z,18.85
2024-05-09T08:45:28.185Z,18.92
2024-05-09T08:46:29.251Z,18.98
2024-05-09T08:47:28.144Z,19.02
2024-05-09T08:48:34.040Z,19.07
2024-05-09T08:49:29.162Z,19.05
2024-05-09T08:50:36.352Z,19.07
2024-05-09T08:51:29.168Z,19.05
2024-05-09T08:52:28.082Z,19.08
2024-05-09T08:53:29.077Z,19.12
2024-05-09T08:54:29.107Z,19.06
2024-05-09T08:55:28.091Z,19.09
2024-05-09T08:56:29.075Z,19.14
2024-05-09T08:57:28.195Z,19.18
2024-05-09T08:58:29.066Z,19.25
2024-05-09T08:59:29.088Z,19.2
2024-05-09T09:00:35.820Z,19.25
2024-05-09T09:01:29.138Z,19.28
2024-05-09T09:02:28.329Z,19.32
2024-05-09T09:03:29.309Z,19.1
2024-05-09T09:04:29.165Z,19.12
2024-05-09T09:05:30.684Z,19.18
2024-05-09T09:06:28.140Z,19.25
2024-05-09T09:07:28.267Z,19.3
2024-05-09T09:08:29.117Z,19.36
2024-05-09T09:09:29.149Z,19.33
2024-05-09T09:10:32.150Z,19.37
2024-05-09T09:11:28.153Z,19.43
2024-05-09T09:12:28.147Z,19.46
2024-05-09T09:13:29.126Z,19.44
2024-05-09T09:14:29.099Z,19.41
2024-05-09T09:15:29.137Z,19.45
2024-05-09T09:16:28.167Z,19.5
2024-05-09T09:17:35.639Z,19.51
2024-05-09T09:18:28.589Z,19.52
2024-05-09T09:19:29.186Z,19.49
2024-05-09T09:20:35.722Z,19.55
2024-05-09T09:21:28.158Z,19.55
2024-05-09T09:22:29.156Z,19.57
2024-05-09T09:23:28.144Z,19.61
2024-05-09T09:24:29.187Z,19.58
2024-05-09T09:25:29.170Z,19.6
2024-05-09T09:26:28.154Z,19.64
2024-05-09T09:27:29.146Z,19.67
2024-05-09T09:28:28.178Z,19.71
2024-05-09T09:29:29.154Z,19.64
2024-05-09T09:30:36.053Z,19.62
2024-05-09T09:31:28.261Z,19.64
2024-05-09T09:32:29.302Z,19.69
2024-05-09T09:33:28.297Z,19.67
2024-05-09T09:34:29.364Z,19.63
2024-05-09T09:35:28.173Z,19.63
2024-05-09T09:36:28.271Z,19.63
2024-05-09T09:37:29.220Z,19.63
2024-05-09T09:38:28.226Z,19.66
2024-05-09T09:39:29.232Z,19.6
2024-05-09T09:40:32.172Z,19.49
2024-05-09T09:41:28.182Z,19.5
2024-05-09T09:42:29.250Z,19.5
2024-05-09T09:43:28.187Z,19.47
2024-05-09T09:44:29.179Z,19.43
2024-05-09T09:45:28.249Z,19.43
2024-05-09T09:46:32.220Z,19.45
2024-05-09T09:47:28.269Z,19.43
2024-05-09T09:48:28.339Z,19.42
2024-05-09T09:49:29.317Z,19.37
2024-05-09T09:50:34.115Z,19.4
2024-05-09T09:51:29.210Z,19.43
2024-05-09T09:52:28.292Z,19.42
2024-05-09T09:53:28.213Z,19.41
2024-05-09T09:54:29.243Z,19.34
2024-05-09T09:55:28.235Z,19.37
2024-05-09T09:56:29.239Z,19.37
2024-05-09T09:57:28.285Z,19.38
2024-05-09T09:58:28.396Z,19.37
2024-05-09T09:59:29.213Z,19.32
2024-05-09T10:00:32.873Z,19.32
2024-05-09T10:01:29.328Z,19.33
2024-05-09T10:02:28.369Z,19.34
2024-05-09T10:03:29.403Z,19.34
2024-05-09T10:04:29.358Z,19.25
2024-05-09T10:05:28.443Z,19.27
2024-05-09T10:06:29.266Z,19.28
2024-05-09T10:07:28.272Z,19.23
2024-05-09T10:08:29.227Z,19.24
2024-05-09T10:09:29.279Z,19.18
2024-05-09T10:10:32.430Z,19.19
2024-05-09T10:11:29.384Z,19.2
2024-05-09T10:12:28.306Z,19.2
2024-05-09T10:13:29.292Z,19.18
2024-05-09T10:14:29.265Z,19.14
2024-05-09T10:15:50.939Z,19.14
2024-05-09T10:16:28.308Z,19.15
2024-05-09T10:17:28.375Z,19.2
2024-05-09T10:18:31.252Z,19.21
2024-05-09T10:19:29.405Z,19.16
2024-05-09T10:21:29.319Z,19.2
2024-05-09T10:22:28.331Z,19.23
2024-05-09T10:23:29.405Z,19.23
2024-05-09T10:24:29.351Z,19.15
2024-05-09T10:25:29.302Z,19.15
2024-05-09T10:26:28.289Z,19.19
2024-05-09T10:27:28.356Z,19.2
2024-05-09T10:28:29.328Z,19.05
2024-05-09T10:29:29.288Z,19.01
2024-05-09T10:30:34.353Z,19.07
2024-05-09T10:31:28.349Z,19.11
2024-05-09T10:32:29.387Z,19.15
2024-05-09T10:33:28.425Z,19.18
2024-05-09T10:34:29.378Z,19.14
2024-05-09T10:35:29.296Z,19.16
2024-05-09T10:36:28.469Z,19.19
2024-05-09T10:37:29.448Z,19.22
2024-05-09T10:38:28.328Z,19.18
2024-05-09T10:39:29.342Z,19.14
2024-05-09T10:40:31.611Z,19.16
2024-05-09T10:41:28.320Z,19.19
2024-05-09T10:42:29.349Z,19.18
2024-05-09T10:43:28.346Z,19.18
2024-05-09T10:44:37.382Z,19.14
2024-05-09T10:45:28.356Z,19.14
2024-05-09T10:46:28.371Z,19.16
2024-05-09T10:47:29.431Z,19.18
2024-05-09T10:48:28.504Z,19.18
2024-05-09T10:49:29.381Z,19.13
2024-05-09T10:50:31.970Z,19.14
2024-05-09T10:51:28.385Z,19.17
2024-05-09T10:52:29.339Z,19.18
2024-05-09T10:53:28.349Z,19.18
2024-05-09T10:54:29.374Z,19.13
2024-05-09T10:55:28.395Z,19.15
2024-05-09T10:56:28.367Z,19.18
2024-05-09T10:57:29.387Z,19.19
2024-05-09T10:58:28.418Z,19.19
2024-05-09T10:59:29.352Z,19.11
2024-05-09T11:00:33.681Z,19.11
2024-05-09T11:01:29.435Z,19.13
2024-05-09T11:02:28.585Z,19.14
2024-05-09T11:03:28.482Z,19.16
2024-05-09T11:04:29.403Z,19.12
2024-05-09T11:05:28.580Z,19.12
2024-05-09T11:06:29.368Z,19.16
2024-05-09T11:07:28.402Z,19.18
2024-05-09T11:08:28.391Z,19.21
2024-05-09T11:09:29.410Z,19.18
2024-05-09T11:10:33.733Z,19.19
2024-05-09T11:11:29.458Z,19.23
2024-05-09T11:12:28.416Z,19.26
2024-05-09T11:13:33.423Z,19.28
2024-05-09T11:14:29.384Z,19.26
2024-05-09T11:15:28.421Z,19.28
2024-05-09T11:16:29.428Z,19.34
2024-05-09T11:17:28.681Z,19.37
2024-05-09T11:18:31.890Z,19.41
2024-05-09T11:19:29.470Z,19.39
2024-05-09T11:20:30.143Z,19.41
2024-05-09T11:21:29.461Z,19.46
2024-05-09T11:22:28.473Z,19.5
2024-05-09T11:23:29.412Z,19.53
2024-05-09T11:24:29.454Z,19.5
2024-05-09T11:25:28.423Z,19.51
2024-05-09T11:26:29.532Z,19.56
2024-05-09T11:27:28.509Z,19.6
2024-05-09T11:28:29.420Z,19.64
2024-05-09T11:29:29.425Z,19.63
2024-05-09T11:30:32.135Z,19.64
2024-05-09T11:31:28.554Z,19.7
2024-05-09T11:32:28.685Z,19.72
2024-05-09T11:33:29.628Z,19.74
2024-05-09T11:34:29.496Z,19.73
2024-05-09T11:35:29.488Z,19.75
2024-05-09T11:36:28.495Z,19.79
2024-05-09T11:37:28.511Z,19.83
2024-05-09T11:38:29.473Z,19.86
2024-05-09T11:39:29.480Z,19.85
2024-05-09T11:40:34.197Z,19.86
2024-05-09T11:41:28.485Z,19.91
2024-05-09T11:42:31.514Z,19.92
2024-05-09T11:43:28.582Z,19.94
2024-05-09T11:44:29.448Z,19.87
2024-05-09T11:45:29.492Z,19.86
2024-05-09T11:46:28.499Z,19.92
2024-05-09T11:47:29.564Z,19.81
2024-05-09T11:48:28.653Z,19.84
2024-05-09T11:49:29.602Z,19.78
2024-05-09T11:50:33.188Z,19.78
2024-05-09T11:51:28.574Z,19.86
2024-05-09T11:52:29.499Z,19.8
2024-05-09T11:53:28.534Z,19.73
2024-05-09T11:54:29.482Z,19.68
2024-05-09T11:55:29.603Z,19.67
2024-05-09T11:56:28.495Z,19.67
2024-05-09T11:57:29.565Z,19.73
2024-05-09T11:58:28.556Z,19.74
2024-05-09T11:59:30.392Z,19.74
2024-05-09T12:00:34.347Z,19.76
2024-05-09T12:01:28.683Z,19.85
2024-05-09T12:02:29.689Z,19.91
2024-05-09T12:03:28.598Z,19.9
2024-05-09T12:04:29.622Z,19.84
2024-05-09T12:05:28.797Z,19.84
2024-05-09T12:06:28.639Z,19.86
2024-05-09T12:07:29.604Z,19.81
2024-05-09T12:08:28.531Z,19.83
2024-05-09T12:09:29.523Z,19.72
2024-05-09T12:10:32.917Z,19.75
2024-05-09T12:11:31.456Z,19.82
2024-05-09T12:12:28.556Z,19.81
2024-05-09T12:13:28.620Z,19.87
2024-05-09T12:14:29.542Z,19.84
2024-05-09T12:15:28.690Z,19.83
2024-05-09T12:16:29.714Z,19.86
2024-05-09T12:17:28.684Z,19.9
2024-05-09T12:18:28.637Z,19.92
2024-05-09T12:19:29.564Z,19.89
2024-05-09T12:20:35.645Z,19.83
2024-05-09T12:21:29.550Z,19.83
2024-05-09T12:22:28.595Z,19.88
2024-05-09T12:23:28.562Z,19.96
2024-05-09T12:24:29.586Z,19.95
2024-05-09T12:25:28.573Z,19.94
2024-05-09T12:26:29.570Z,19.95
2024-05-09T12:27:28.624Z,19.98
2024-05-09T12:28:29.683Z,19.99
2024-05-09T12:29:29.558Z,19.96
2024-05-09T12:30:35.979Z,19.94
2024-05-09T12:31:29.638Z,19.97
2024-05-09T12:32:28.710Z,19.99
2024-05-09T12:33:29.777Z,19.99
2024-05-09T12:34:29.629Z,19.98
2024-05-09T12:35:28.602Z,19.98
2024-05-09T12:36:29.609Z,20.02
2024-05-09T12:37:28.596Z,20.01
2024-05-09T12:38:29.622Z,20.02
2024-05-09T12:39:29.607Z,19.97
2024-05-09T12:40:36.487Z,19.95
2024-05-09T12:41:28.613Z,19.99
2024-05-09T12:42:29.906Z,20.01
2024-05-09T12:43:29.765Z,20.02
2024-05-09T12:44:29.583Z,20.02
2024-05-09T12:45:29.638Z,20.03
2024-05-09T12:46:28.812Z,20.07
2024-05-09T12:47:28.688Z,20.08
2024-05-09T12:48:29.798Z,20.1
2024-05-09T12:49:29.784Z,20.07
2024-05-09T12:50:32.788Z,20.05
2024-05-09T12:51:28.692Z,20.07
2024-05-09T12:52:28.631Z,20.09
2024-05-09T12:53:29.625Z,20.11
2024-05-09T12:54:29.648Z,20.11
2024-05-09T12:55:31.933Z,20.1
2024-05-09T12:56:28.631Z,20.14
2024-05-09T12:57:29.663Z,20.16
2024-05-09T12:58:28.667Z,20.17